EDT,Max TemperatureF,Mean TemperatureF,Min TemperatureF,Max Dew PointF,MeanDew PointF,Min DewpointF,Max Humidity, Mean Humidity, Min Humidity, Max Sea Level PressureIn, Mean Sea Level PressureIn, Min Sea Level PressureIn, Max VisibilityMiles, Mean VisibilityMiles, Min VisibilityMiles, Max Wind SpeedMPH, Mean Wind SpeedMPH, Max Gust SpeedMPH,PrecipitationIn, CloudCover, Events, WindDirDegrees
2013-8-1,83,73,63,70,65,60,100,74,47,30.03,29.99,29.94,10,6,0,14,5,18,T,4,Fog,285
2013-8-2,83,72,61,63,61,59,93,72,51,30.05,30.02,29.99,10,10,10,13,5,15,0.00,0,,210
2013-8-3,85,77,69,70,67,63,90,76,61,30.03,29.99,29.96,10,10,7,16,7,20,T,6,Rain-Thunderstorm,236
2013-8-4,81,71,60,67,61,54,93,68,42,30.12,30.08,30.03,10,7,0,15,6,19,0.00,1,Fog,354
2013-8-5,83,70,56,63,56,53,87,62,37,30.12,30.06,29.97,10,10,10,9,3,13,0.00,2,Rain,86
2013-8-6,84,77,69,71,65,59,87,73,58,29.98,29.96,29.94,10,10,10,10,6,14,0.00,6,,157
2013-8-7,84,78,72,76,72,70,94,82,69,29.99,29.95,29.88,10,7,2,18,6,23,0.66,6,Rain-Thunderstorm,170
2013-8-8,84,78,72,74,72,70,94,82,69,30.02,29.96,29.90,10,8,1,16,7,20,0.50,7,Rain-Thunderstorm,200
2013-8-9,84,78,72,74,72,69,94,82,69,30.04,29.99,29.94,10,9,2,20,8,27,0.48,7,Rain-Thunderstorm,222
2013-8-10,83,78,72,73,71,70,100,85,69,30.13,30.07,30.03,10,8,0,9,2,11,T,7,Fog-Rain-Thunderstorm,117
2013-8-11,87,79,71,73,71,69,100,79,57,30.13,30.08,30.04,10,6,2,14,5,17,0.02,5,Rain,225
2013-8-12,82,75,67,73,69,65,97,83,69,30.10,30.03,29.92,10,6,0,22,4,26,1.30,5,Fog-Rain-Thunderstorm,162
2013-8-13,79,71,63,70,67,55,97,80,62,30.02,29.93,29.88,10,9,2,15,8,18,0.02,6,Rain,308
2013-8-14,73,63,53,55,52,50,89,66,43,30.14,30.11,30.04,10,10,10,14,9,19,0.00,1,,25
2013-8-15,76,64,52,55,52,49,89,66,43,30.15,30.12,30.06,10,10,10,15,8,20,0.00,0,,52
2013-8-16,80,69,58,62,58,54,87,71,54,30.13,30.10,30.07,10,10,10,15,8,19,0.00,1,,44
2013-8-17,83,73,63,64,59,57,84,66,48,30.17,30.13,30.10,10,10,10,15,7,18,T,3,Rain,81
2013-8-18,81,71,61,67,64,60,100,79,58,30.19,30.14,30.10,10,10,10,10,2,12,T,5,,121
2013-8-19,82,75,67,69,67,66,100,79,58,30.16,30.12,30.06,10,10,5,14,4,15,T,3,Rain,100
2013-8-20,86,76,66,69,67,65,90,73,55,30.17,30.12,30.09,10,10,6,14,5,20,0.00,4,Thunderstorm,102
2013-8-21,85,77,69,73,69,65,97,76,55,30.21,30.15,30.09,10,10,6,26,7,34,0.02,2,Thunderstorm,188
2013-8-22,87,78,69,73,69,66,97,75,53,30.16,30.10,30.03,10,7,0,15,5,18,T,3,Fog-Rain-Thunderstorm,237
2013-8-23,87,78,69,70,68,64,97,74,51,30.12,30.07,30.02,10,6,0,15,5,17,T,1,Fog-Rain,23
2013-8-24,88,76,64,66,60,54,87,59,31,30.25,30.20,30.12,10,10,7,15,6,19,0.00,0,,74
2013-8-25,87,74,60,65,61,58,90,67,43,30.34,30.28,30.24,10,10,10,10,3,12,0.00,0,,168
2013-8-26,88,78,67,69,67,63,93,72,50,30.28,30.21,30.12,10,10,9,13,7,16,0.00,2,,225
2013-8-27,90,80,69,73,71,67,97,78,59,30.12,30.07,30.00,10,8,3,13,8,17,T,2,,232
2013-8-28,91,81,71,73,71,68,100,75,49,30.04,29.98,29.92,10,7,1,17,8,21,0.05,2,,239
2013-8-29,88,79,70,72,69,68,93,73,53,30.05,29.99,29.95,10,8,2,13,6,16,0.00,3,Thunderstorm,40
2013-8-30,90,78,66,72,68,64,100,74,47,30.01,29.95,29.86,10,8,0,12,4,15,0.00,1,Fog,191
2013-8-31,91,80,68,77,69,66,97,81,65,29.98,29.90,29.80,10,8,0,33,10,41,2.09,5,Fog-Rain-Thunderstorm,156